AirNav   TITAN Aviation Fuels
 
 413 users online  

1CO3 Bellmore Farms Airport
Nunn, Colorado, USA

GOING TO NUNN?


FAA INFORMATION EFFECTIVE 22 APRIL 2021

Location

FAA Identifier: 1CO3
Lat/Long: 40-42-14.9300N 104-47-51.8890W
40-42.248833N 104-47.864817W
40.7041472,-104.7977469
(estimated)
Elevation: 5225 ft. / 1593 m (estimated)
Variation: 11E (1985)
From city: 1 mile W of NUNN, CO
Time zone: UTC -6 (UTC -7 during Standard Time)
Zip code: 80648

Airport Operations

Airport use: Private use. Permission required prior to landing
Activation date: 03/1966
Control tower: no
ARTCC: DENVER CENTER
FSS: DENVER FLIGHT SERVICE STATION
Attendance: DAWN-DUSK
Wind indicator: yes
Segmented circle: no

Airport Communications

WX AWOS-3PT at GXY (18 nm SE): 135.175 (970-352-3511)
WX AWOS-3PT at FNL (18 nm SW): 135.075 (970-669-9187)

Nearby radio navigation aids

VOR radial/distance  VOR name  Freq  Var
GLLr304/16.4GILL VOR/DME114.2013E
CYSr169/30.4CHEYENNE VORTAC113.1013E

Airport Services

Airframe service: NONE
Powerplant service: NONE

Runway Information

Runway 18/36

Dimensions: 5000 x 50 ft. / 1524 x 15 m
Surface: gravel
RUNWAY 18  RUNWAY 36
Traffic pattern: leftleft
Obstructions: road, markedpline, marked

Runway 14/32

Dimensions: 3000 x 30 ft. / 914 x 9 m
Surface: gravel
RUNWAY 14  RUNWAY 32
Traffic pattern: leftleft

Airport Ownership and Management from official FAA records

Ownership: Privately-owned
Owner: LEROY A BELLMORE
13480 RD 100
NUNN, CO 80648
Phone 303-897-2252
Manager: LEROY A BELLMORE
13480 RD 100
NUNN, CO 80648
Phone 303-897-2252

Airport Operational Statistics

Aircraft based on the field: 4
Single engine airplanes: 2
Multi engine airplanes: 2
    

Additional Remarks

FOR CD CTC DENVER APCH AT 303-342-1916.

Instrument Procedures

There are no published instrument procedures at 1CO3.

Some nearby airports with instrument procedures:

KGXY - Greeley-Weld County Airport (18 nm SE)
KFNL - Northern Colorado Regional Airport (18 nm SW)
KCYS - Cheyenne Regional Airport/Jerry Olson Field (27 nm N)
KLMO - Vance Brand Airport (36 nm SW)
KEIK - Erie Municipal Airport (43 nm S)
 
Loc | Ops | Rwys | IFR | FBO | Links
Com | Nav | Svcs | Stats | Notes

AirBoss

 
Area around 1CO3 (Bellmore Farms Airport)
 
Road maps at: MapQuest Bing Google
 
Aerial photo
No photo
 
Sectional chart

 
Airport distance calculator
Flying to Bellmore Farms Airport? Find the distance to fly.

From to 1CO3

Sunrise and sunset
Times for 09-May-2021
 Local
(UTC-6)
 Zulu
(UTC)
Morning civil twilight05:1911:19
Sunrise05:4911:49
Sunset20:0202:02
Evening civil twilight20:3302:33

Current date and time
Zulu (UTC)  09-May-2021 07:32:19
Local (UTC-6)  09-May-2021 01:32:19
 
METAR
KFNL 
18nm SW 
090713Z AUTO 01019KT 10SM BKN021 OVC050 06/01 A3007 RMK AO2
KGXY 
19nm SE 
090656Z 01019G23KT 10SM BKN022 OVC033 08/03 A3006 RMK AO2 SLP158 T00780028 402440078
KFEW 
26nm N 
090458Z AUTO 36017KT 10SM BKN008 OVC100 03/01 A3006 RMK AO2 CIG 008V011 SLP139 T00320007 $
KCYS 
27nm N 
090653Z AUTO 01014G27KT 10SM SCT047 OVC055 02/M01 A3006 RMK AO2 PK WND 35027/0646 UPB16E18SNB07E16 SLP135 P0000 T00221011 401830022 $
TAF
KCYS 
27nm N 
090529Z 0906/1006 01012G22KT 6SM BR OVC020 TEMPO 0906/0908 BKN009 FM090800 35011KT 6SM BR OVC020 FM090900 32008KT P6SM BKN050 OVC250 FM091200 32008KT P6SM BKN250 FM091900 29010G20KT P6SM OVC050
NOTAMs
Click for the latest NOTAMs
NOTAMs are issued by the DoD/FAA and will open in a separate window not controlled by AirNav.

 

 
 

Would you like to see your business listed on this page?

 If your business provides an interesting product or service to pilots, flight crews, aircraft, or users of the Bellmore Farms Airport, you should consider listing it here.  To start the listing process, click on the button below
 
Add a business
 

Other Pages about Bellmore Farms Airport

Update a link
 
Copyright © AirNav, LLC. All rights reserved. Privacy Policy  Contact